createdAt,value
2019-02-20T00:00:17.956Z,6.51
2019-02-20T00:01:17.959Z,6.55
2019-02-20T00:02:17.934Z,6.61
2019-02-20T00:03:17.962Z,6.62
2019-02-20T00:04:17.923Z,6.58
2019-02-20T00:05:17.974Z,6.56
2019-02-20T00:06:17.946Z,6.61
2019-02-20T00:07:17.893Z,6.55
2019-02-20T00:08:17.882Z,6.56
2019-02-20T00:09:17.859Z,6.55
2019-02-20T00:10:17.897Z,6.59
2019-02-20T00:11:17.847Z,6.46
2019-02-20T00:12:17.835Z,6.61
2019-02-20T00:13:17.825Z,6.55
2019-02-20T00:14:17.807Z,6.49
2019-02-20T00:15:17.859Z,6.59
2019-02-20T00:16:17.800Z,6.49
2019-02-20T00:17:17.792Z,6.56
2019-02-20T00:18:17.764Z,6.58
2019-02-20T00:19:17.746Z,6.64
2019-02-20T00:20:17.792Z,6.51
2019-02-20T00:21:17.746Z,6.62
2019-02-20T00:22:17.713Z,6.55
2019-02-20T00:23:17.745Z,6.56
2019-02-20T00:24:17.701Z,6.44
2019-02-20T00:25:17.681Z,6.62
2019-02-20T00:26:17.721Z,6.55
2019-02-20T00:27:17.659Z,6.62
2019-02-20T00:28:17.658Z,6.64
2019-02-20T00:29:17.637Z,6.56
2019-02-20T00:30:17.649Z,6.61
2019-02-20T00:31:17.671Z,6.73
2019-02-20T00:32:17.607Z,6.66
2019-02-20T00:33:17.634Z,6.70
2019-02-20T00:34:17.600Z,6.69
2019-02-20T00:35:17.575Z,6.66
2019-02-20T00:36:17.597Z,6.62
2019-02-20T00:37:17.595Z,6.71
2019-02-20T00:38:17.541Z,6.67
2019-02-20T00:39:17.530Z,6.71
2019-02-20T00:40:17.556Z,6.58
2019-02-20T00:41:17.518Z,6.67
2019-02-20T00:42:17.542Z,6.61
2019-02-20T00:43:17.539Z,6.61
2019-02-20T00:44:17.581Z,6.67
2019-02-20T00:45:17.465Z,6.62
2019-02-20T00:46:17.453Z,6.67
2019-02-20T00:47:17.453Z,6.71
2019-02-20T00:48:17.472Z,6.70
2019-02-20T00:49:17.426Z,6.69
2019-02-20T00:50:17.403Z,6.66
2019-02-20T00:51:17.396Z,6.71
2019-02-20T00:52:17.394Z,6.71
2019-02-20T00:53:17.385Z,6.69
2019-02-20T00:54:17.433Z,6.74
2019-02-20T00:55:17.356Z,6.84
2019-02-20T00:56:17.359Z,6.76
2019-02-20T00:57:17.328Z,6.81
2019-02-20T00:58:17.325Z,6.79
2019-02-20T00:59:17.667Z,6.80
2019-02-20T01:00:17.331Z,6.74
2019-02-20T01:01:17.282Z,6.74
2019-02-20T01:02:17.275Z,6.80
2019-02-20T01:03:17.266Z,6.80
2019-02-20T01:04:17.338Z,6.80
2019-02-20T01:05:17.235Z,6.79
2019-02-20T01:06:17.237Z,6.76
2019-02-20T01:07:17.248Z,6.80
2019-02-20T01:08:17.244Z,6.79
2019-02-20T01:09:17.200Z,6.79
2019-02-20T01:10:17.244Z,6.79
2019-02-20T01:11:17.239Z,6.84
2019-02-20T01:12:17.215Z,6.77
2019-02-20T01:13:17.155Z,6.77
2019-02-20T01:14:17.145Z,6.74
2019-02-20T01:15:17.188Z,6.77
2019-02-20T01:16:17.118Z,6.84
2019-02-20T01:17:17.150Z,6.85
2019-02-20T01:18:17.097Z,6.91
2019-02-20T01:19:17.106Z,6.76
2019-02-20T01:20:17.089Z,6.77
2019-02-20T01:21:17.112Z,6.80
2019-02-20T01:22:17.049Z,6.87
2019-02-20T01:23:17.044Z,6.80
2019-02-20T01:24:17.030Z,6.87
2019-02-20T01:25:17.022Z,6.81
2019-02-20T01:26:17.058Z,6.81
2019-02-20T01:27:17.000Z,6.85
2019-02-20T01:28:16.983Z,6.80
2019-02-20T01:29:16.968Z,6.89
2019-02-20T01:30:16.971Z,6.80
2019-02-20T01:31:16.947Z,6.88
2019-02-20T01:32:16.979Z,6.85
2019-02-20T01:33:16.961Z,6.79
2019-02-20T01:34:16.914Z,6.76
2019-02-20T01:35:16.910Z,6.81
2019-02-20T01:36:16.940Z,6.67
2019-02-20T01:37:16.885Z,6.74
2019-02-20T01:38:16.878Z,6.74
2019-02-20T01:39:16.872Z,6.76
2019-02-20T01:40:16.872Z,6.74
2019-02-20T01:41:16.848Z,6.73
2019-02-20T01:42:16.876Z,6.79
2019-02-20T01:43:16.841Z,6.77
2019-02-20T01:44:16.812Z,6.74
2019-02-20T01:45:16.802Z,6.79
2019-02-20T01:46:16.800Z,6.87
2019-02-20T01:47:16.815Z,6.76
2019-02-20T01:48:16.774Z,6.76
2019-02-20T01:49:16.835Z,6.76
2019-02-20T01:50:16.749Z,6.80
2019-02-20T01:51:16.745Z,6.79
2019-02-20T01:52:16.768Z,6.79
2019-02-20T01:53:16.709Z,6.81
2019-02-20T01:54:16.700Z,6.79
2019-02-20T01:55:16.691Z,6.70
2019-02-20T01:56:16.716Z,6.74
2019-02-20T01:57:16.663Z,6.74
2019-02-20T01:58:16.655Z,6.73
2019-02-20T01:59:16.699Z,6.81
2019-02-20T02:00:16.635Z,6.74
2019-02-20T02:01:16.624Z,6.73
2019-02-20T02:02:16.647Z,6.74
2019-02-20T02:03:16.674Z,6.74
2019-02-20T02:04:16.625Z,6.73
2019-02-20T02:05:16.579Z,6.73
2019-02-20T02:06:16.589Z,6.80
2019-02-20T02:07:16.553Z,6.70
2019-02-20T02:08:16.588Z,6.71
2019-02-20T02:09:16.534Z,6.70
2019-02-20T02:10:16.521Z,6.74
2019-02-20T02:11:16.562Z,6.74
2019-02-20T02:12:16.504Z,6.66
2019-02-20T02:13:16.491Z,6.71
2019-02-20T02:14:16.521Z,6.67
2019-02-20T02:15:20.416Z,6.73
2019-02-20T02:16:16.456Z,6.80
2019-02-20T02:17:16.439Z,6.67
2019-02-20T02:18:16.436Z,6.70
2019-02-20T02:19:16.423Z,6.85
2019-02-20T02:20:16.464Z,6.80
2019-02-20T02:21:16.398Z,6.84
2019-02-20T02:22:16.382Z,6.74
2019-02-20T02:23:19.900Z,6.71
2019-02-20T02:24:16.363Z,6.70
2019-02-20T02:25:16.359Z,6.79
2019-02-20T02:26:16.377Z,6.70
2019-02-20T02:27:16.333Z,6.79
2019-02-20T02:28:16.318Z,6.79
2019-02-20T02:29:16.310Z,6.80
2019-02-20T02:30:16.341Z,6.74
2019-02-20T02:31:16.330Z,6.79
2019-02-20T02:32:16.283Z,6.88
2019-02-20T02:33:16.261Z,6.74
2019-02-20T02:34:16.250Z,6.80
2019-02-20T02:35:16.251Z,6.76
2019-02-20T02:36:16.270Z,6.76
2019-02-20T02:37:16.220Z,6.70
2019-02-20T02:38:16.210Z,6.85
2019-02-20T02:39:16.205Z,6.77
2019-02-20T02:40:16.191Z,6.76
2019-02-20T02:41:16.237Z,6.81
2019-02-20T02:42:16.179Z,6.74
2019-02-20T02:43:16.165Z,6.74
2019-02-20T02:44:16.159Z,6.71
2019-02-20T02:45:16.191Z,6.73
2019-02-20T02:46:16.158Z,6.76
2019-02-20T02:47:16.113Z,6.71
2019-02-20T02:48:16.103Z,6.76
2019-02-20T02:49:16.095Z,6.76
2019-02-20T02:50:16.081Z,6.80
2019-02-20T02:51:16.087Z,6.76
2019-02-20T02:52:16.123Z,6.77
2019-02-20T02:53:16.076Z,6.79
2019-02-20T02:54:16.035Z,6.88
2019-02-20T02:55:16.053Z,6.80
2019-02-20T02:56:16.008Z,6.80
2019-02-20T02:57:16.003Z,6.71
2019-02-20T02:58:16.037Z,6.73
2019-02-20T02:59:15.989Z,6.73
2019-02-20T03:00:15.967Z,6.67
2019-02-20T03:01:15.956Z,6.70
2019-02-20T03:02:15.996Z,6.70
2019-02-20T03:03:15.934Z,6.77
2019-02-20T03:04:15.937Z,6.77
2019-02-20T03:05:15.917Z,6.67
2019-02-20T03:06:15.897Z,6.64
2019-02-20T03:07:15.956Z,6.64
2019-02-20T03:08:15.925Z,6.69
2019-02-20T03:09:15.861Z,6.74
2019-02-20T03:10:15.858Z,6.73
2019-02-20T03:11:15.872Z,6.70
2019-02-20T03:12:15.836Z,6.74
2019-02-20T03:13:15.822Z,6.70
2019-02-20T03:14:15.860Z,6.59
2019-02-20T03:15:15.799Z,6.62
2019-02-20T03:16:15.787Z,6.59
2019-02-20T03:17:15.775Z,6.59
2019-02-20T03:18:15.786Z,6.61
2019-02-20T03:19:15.811Z,6.73
2019-02-20T03:20:15.747Z,6.55
2019-02-20T03:21:15.741Z,6.54
2019-02-20T03:22:15.746Z,6.59
2019-02-20T03:23:15.717Z,6.61
2019-02-20T03:24:15.699Z,6.66
2019-02-20T03:25:15.740Z,6.61
2019-02-20T03:26:15.679Z,6.56
2019-02-20T03:27:15.671Z,6.54
2019-02-20T03:28:15.665Z,6.58
2019-02-20T03:29:15.667Z,6.61
2019-02-20T03:30:15.699Z,6.61
2019-02-20T03:31:15.631Z,6.55
2019-02-20T03:32:15.623Z,6.56
2019-02-20T03:33:15.609Z,6.58
2019-02-20T03:34:15.610Z,6.59
2019-02-20T03:35:15.590Z,6.52
2019-02-20T03:36:15.614Z,6.48
2019-02-20T03:37:15.558Z,6.56
2019-02-20T03:38:15.594Z,6.59
2019-02-20T03:39:15.546Z,6.54
2019-02-20T03:40:15.526Z,6.61
2019-02-20T03:41:15.555Z,6.52
2019-02-20T03:42:15.565Z,6.59
2019-02-20T03:43:15.497Z,6.58
2019-02-20T03:44:15.478Z,6.55
2019-02-20T03:45:15.478Z,6.56
2019-02-20T03:46:15.452Z,6.56
2019-02-20T03:47:15.494Z,6.64
2019-02-20T03:48:15.434Z,6.56
2019-02-20T03:49:15.437Z,6.51
2019-02-20T03:50:15.417Z,6.44
2019-02-20T03:51:15.461Z,6.62
2019-02-20T03:52:15.390Z,6.62
2019-02-20T03:53:15.383Z,6.58
2019-02-20T03:54:15.374Z,6.61
2019-02-20T03:55:15.379Z,6.55
2019-02-20T03:56:15.406Z,6.55
2019-02-20T03:57:15.344Z,6.54
2019-02-20T03:58:15.341Z,6.44
2019-02-20T03:59:15.316Z,6.51
2019-02-20T04:00:15.307Z,6.56
2019-02-20T04:01:15.346Z,6.61
2019-02-20T04:02:15.322Z,6.61
2019-02-20T04:03:15.277Z,6.61
2019-02-20T04:04:15.367Z,6.56
2019-02-20T04:05:15.252Z,6.58
2019-02-20T04:06:15.240Z,6.62
2019-02-20T04:07:15.268Z,6.62
2019-02-20T04:08:15.219Z,6.61
2019-02-20T04:09:15.249Z,6.54
2019-02-20T04:10:15.269Z,6.49
2019-02-20T04:11:15.180Z,6.64
2019-02-20T04:12:15.229Z,6.56
2019-02-20T04:13:15.157Z,6.59
2019-02-20T04:14:15.171Z,6.69
2019-02-20T04:15:15.141Z,6.59
2019-02-20T04:16:15.129Z,6.59
2019-02-20T04:17:15.128Z,6.70
2019-02-20T04:18:15.151Z,6.73
2019-02-20T04:19:15.098Z,6.71
2019-02-20T04:20:15.093Z,6.64
2019-02-20T04:21:15.098Z,6.61
2019-02-20T04:22:15.121Z,6.64
2019-02-20T04:23:15.094Z,6.67
2019-02-20T04:24:15.044Z,6.69
2019-02-20T04:25:15.102Z,6.64
2019-02-20T04:26:15.023Z,6.70
2019-02-20T04:27:15.012Z,6.71
2019-02-20T04:28:15.000Z,6.70
2019-02-20T04:29:14.990Z,6.64
2019-02-20T04:30:14.977Z,6.64
2019-02-20T04:31:15.002Z,6.74
2019-02-20T04:32:14.982Z,6.62
2019-02-20T04:33:14.982Z,6.71
2019-02-20T04:34:15.016Z,6.73
2019-02-20T04:35:14.921Z,6.69
2019-02-20T04:36:14.973Z,6.71
2019-02-20T04:37:14.923Z,6.64
2019-02-20T04:38:14.889Z,6.74
2019-02-20T04:39:14.927Z,6.73
2019-02-20T04:40:14.860Z,6.73
2019-02-20T04:41:14.851Z,6.81
2019-02-20T04:42:14.846Z,6.77
2019-02-20T04:43:14.847Z,6.80
2019-02-20T04:44:14.822Z,6.79
2019-02-20T04:45:14.877Z,6.74
2019-02-20T04:46:14.797Z,6.80
2019-02-20T04:47:14.783Z,6.74
2019-02-20T04:48:14.790Z,6.87
2019-02-20T04:49:14.768Z,6.84
2019-02-20T04:50:14.756Z,6.84
2019-02-20T04:51:14.779Z,6.81
2019-02-20T04:52:14.738Z,6.76
2019-02-20T04:53:14.749Z,6.87
2019-02-20T04:54:14.752Z,6.84
2019-02-20T04:55:14.755Z,6.81
2019-02-20T04:56:14.685Z,6.80
2019-02-20T04:57:14.682Z,6.88
2019-02-20T04:58:14.666Z,6.88
2019-02-20T04:59:14.718Z,6.91
2019-02-20T05:00:14.748Z,6.91
2019-02-20T05:01:14.630Z,6.97
2019-02-20T05:02:14.621Z,6.91
2019-02-20T05:03:14.618Z,6.89
2019-02-20T05:04:14.673Z,6.87
2019-02-20T05:05:14.583Z,6.95
2019-02-20T05:06:14.571Z,7.02
2019-02-20T05:07:14.614Z,6.95
2019-02-20T05:08:14.552Z,6.97
2019-02-20T05:09:14.545Z,6.95
2019-02-20T05:10:14.532Z,6.94
2019-02-20T05:11:14.524Z,7.05
2019-02-20T05:12:14.515Z,7.02
2019-02-20T05:13:14.556Z,7.02
2019-02-20T05:14:14.482Z,7.03
2019-02-20T05:15:14.480Z,7.05
2019-02-20T05:16:14.461Z,7.05
2019-02-20T05:17:14.448Z,7.06
2019-02-20T05:18:14.441Z,7.05
2019-02-20T05:19:14.471Z,7.02
2019-02-20T05:20:14.481Z,7.06
2019-02-20T05:21:14.452Z,6.99
2019-02-20T05:22:14.393Z,6.99
2019-02-20T05:23:14.414Z,6.98
2019-02-20T05:24:24.207Z,7.03
2019-02-20T05:25:15.401Z,7.09
2019-02-20T05:26:14.372Z,7.06
2019-02-20T05:27:14.383Z,7.06
2019-02-20T05:28:14.333Z,7.05
2019-02-20T05:29:14.317Z,7.06
2019-02-20T05:30:14.310Z,7.06
2019-02-20T05:31:16.418Z,7.07
2019-02-20T05:32:14.329Z,7.05
2019-02-20T05:33:14.284Z,7.06
2019-02-20T05:34:14.261Z,7.06
2019-02-20T05:35:14.251Z,7.06
2019-02-20T05:36:14.257Z,7.07
2019-02-20T05:37:14.289Z,7.06
2019-02-20T05:38:14.224Z,7.05
2019-02-20T05:39:14.210Z,6.98
2019-02-20T05:40:14.200Z,7.12
2019-02-20T05:41:14.184Z,7.02
2019-02-20T05:42:14.177Z,7.12
2019-02-20T05:43:14.236Z,7.03
2019-02-20T05:44:14.157Z,7.02
2019-02-20T05:45:14.142Z,7.05
2019-02-20T05:46:14.188Z,7.16
2019-02-20T05:47:14.115Z,7.10
2019-02-20T05:48:14.106Z,7.10
2019-02-20T05:49:14.163Z,7.16
2019-02-20T05:50:14.089Z,6.98
2019-02-20T05:51:14.080Z,7.05
2019-02-20T05:52:14.063Z,7.12
2019-02-20T05:53:14.109Z,7.13
2019-02-20T05:54:14.102Z,7.05
2019-02-20T05:55:14.067Z,7.12
2019-02-20T05:56:14.068Z,7.12
2019-02-20T05:57:14.003Z,7.05
2019-02-20T05:58:13.994Z,7.13
2019-02-20T05:59:13.984Z,7.07
2019-02-20T06:00:13.986Z,7.13
2019-02-20T06:01:14.006Z,7.06
2019-02-20T06:02:13.949Z,7.05
2019-02-20T06:03:14.576Z,6.98
2019-02-20T06:04:13.932Z,7.12
2019-02-20T06:05:13.929Z,7.12
2019-02-20T06:06:13.923Z,7.10
2019-02-20T06:07:13.949Z,7.10
2019-02-20T06:08:13.906Z,7.12
2019-02-20T06:09:14.084Z,7.20
2019-02-20T06:10:13.858Z,7.15
2019-02-20T06:11:15.258Z,7.03
2019-02-20T06:12:13.844Z,7.12
2019-02-20T06:13:13.922Z,7.06
2019-02-20T06:14:13.818Z,7.10
2019-02-20T06:15:14.095Z,7.21
2019-02-20T06:16:13.791Z,7.06
2019-02-20T06:17:13.801Z,7.09
2019-02-20T06:18:13.786Z,7.16
2019-02-20T06:19:13.806Z,7.07
2019-02-20T06:20:13.814Z,7.07
2019-02-20T06:21:13.754Z,7.10
2019-02-20T06:22:13.794Z,7.24
2019-02-20T06:23:13.732Z,7.23
2019-02-20T06:24:13.712Z,7.20
2019-02-20T06:25:13.701Z,7.16
2019-02-20T06:26:13.725Z,7.20
2019-02-20T06:27:13.668Z,7.13
2019-02-20T06:28:13.683Z,7.25
2019-02-20T06:29:13.652Z,7.09
2019-02-20T06:30:13.691Z,7.21
2019-02-20T06:31:13.667Z,7.15
2019-02-20T06:32:13.620Z,7.15
2019-02-20T06:33:13.607Z,7.16
2019-02-20T06:34:13.603Z,7.28
2019-02-20T06:35:13.584Z,7.20
2019-02-20T06:36:13.613Z,7.13
2019-02-20T06:37:13.565Z,7.20
2019-02-20T06:38:13.552Z,7.13
2019-02-20T06:39:13.539Z,7.23
2019-02-20T06:40:13.531Z,7.23
2019-02-20T06:41:13.559Z,7.39
2019-02-20T06:42:13.512Z,7.23
2019-02-20T06:43:13.496Z,7.23
2019-02-20T06:44:13.517Z,7.25
2019-02-20T06:45:13.503Z,7.28
2019-02-20T06:46:13.510Z,7.35
2019-02-20T06:47:13.446Z,7.25
2019-02-20T06:48:13.480Z,7.32
2019-02-20T06:49:13.440Z,7.25
2019-02-20T06:50:13.413Z,7.37
2019-02-20T06:51:13.449Z,7.35
2019-02-20T06:52:13.410Z,7.25
2019-02-20T06:53:13.418Z,7.30
2019-02-20T06:54:13.406Z,7.27
2019-02-20T06:55:13.377Z,7.30
2019-02-20T06:56:13.359Z,7.20
2019-02-20T06:57:13.410Z,7.39
2019-02-20T06:58:13.340Z,7.32
2019-02-20T06:59:13.327Z,7.25
2019-02-20T07:00:13.312Z,7.24
2019-02-20T07:01:13.301Z,7.30
2019-02-20T07:02:13.338Z,7.35
2019-02-20T07:03:13.276Z,7.28
2019-02-20T07:04:13.267Z,7.30
2019-02-20T07:05:13.288Z,7.28
2019-02-20T07:06:13.266Z,7.43
2019-02-20T07:07:13.234Z,7.32
2019-02-20T07:08:13.308Z,7.35
2019-02-20T07:09:15.237Z,7.28
2019-02-20T07:10:13.202Z,7.25
2019-02-20T07:11:13.215Z,7.25
2019-02-20T07:12:13.180Z,7.21
2019-02-20T07:13:13.227Z,7.32
2019-02-20T07:14:13.162Z,7.37
2019-02-20T07:15:13.154Z,7.34
2019-02-20T07:16:13.140Z,7.28
2019-02-20T07:17:13.132Z,7.34
2019-02-20T07:18:13.118Z,7.39
2019-02-20T07:19:13.159Z,7.30
2019-02-20T07:20:13.090Z,7.30
2019-02-20T07:21:13.088Z,7.32
2019-02-20T07:22:13.076Z,7.34
2019-02-20T07:23:13.123Z,7.32
2019-02-20T07:24:13.102Z,7.32
2019-02-20T07:25:13.137Z,7.31
2019-02-20T07:26:13.035Z,7.34
2019-02-20T07:27:13.056Z,7.37
2019-02-20T07:28:13.026Z,7.43
2019-02-20T07:29:13.013Z,7.42
2019-02-20T07:30:13.033Z,7.40
2019-02-20T07:31:13.000Z,7.39
2019-02-20T07:32:13.030Z,7.34
2019-02-20T07:33:12.958Z,7.43
2019-02-20T07:34:12.974Z,7.45
2019-02-20T07:35:12.987Z,7.42
2019-02-20T07:36:12.926Z,7.37
2019-02-20T07:37:12.915Z,7.40
2019-02-20T07:38:12.907Z,7.43
2019-02-20T07:39:12.894Z,7.37
2019-02-20T07:40:12.886Z,7.40
2019-02-20T07:41:12.924Z,7.43
2019-02-20T07:42:12.864Z,7.45
2019-02-20T07:43:12.894Z,7.40
2019-02-20T07:44:12.844Z,7.43
2019-02-20T07:45:12.880Z,7.30
2019-02-20T07:46:12.858Z,7.37
2019-02-20T07:47:12.835Z,7.27
2019-02-20T07:48:12.802Z,7.23
2019-02-20T07:49:12.789Z,7.23
2019-02-20T07:50:12.777Z,7.23
2019-02-20T07:51:14.839Z,7.39
2019-02-20T07:52:12.754Z,7.31
2019-02-20T07:53:12.762Z,7.45
2019-02-20T07:54:12.749Z,7.37
2019-02-20T07:55:13.778Z,7.35
2019-02-20T07:56:12.782Z,7.46
2019-02-20T07:57:12.695Z,7.43
2019-02-20T07:58:12.688Z,7.45
2019-02-20T07:59:12.697Z,7.40
2019-02-20T08:00:12.669Z,7.50
2019-02-20T08:01:12.668Z,7.53
2019-02-20T08:02:12.682Z,7.57
2019-02-20T08:03:12.641Z,7.50
2019-02-20T08:04:12.684Z,7.46
2019-02-20T08:05:12.609Z,7.45
2019-02-20T08:06:12.620Z,7.46
2019-02-20T08:07:12.586Z,7.43
2019-02-20T08:08:12.596Z,7.39
2019-02-20T08:09:12.567Z,7.40
2019-02-20T08:10:12.561Z,7.39
2019-02-20T08:11:12.634Z,7.27
2019-02-20T08:12:12.536Z,7.30
2019-02-20T08:13:12.525Z,7.24
2019-02-20T08:14:12.530Z,7.28
2019-02-20T08:15:12.499Z,7.37
2019-02-20T08:16:12.525Z,7.35
2019-02-20T08:17:12.486Z,7.28
2019-02-20T08:18:12.476Z,7.30
2019-02-20T08:19:12.460Z,7.25
2019-02-20T08:20:12.473Z,7.30
2019-02-20T08:21:12.494Z,7.24
2019-02-20T08:22:12.420Z,7.25
2019-02-20T08:23:12.416Z,7.23
2019-02-20T08:24:12.410Z,7.10
2019-02-20T08:25:12.417Z,7.23
2019-02-20T08:26:12.377Z,7.13
2019-02-20T08:27:12.408Z,7.15
2019-02-20T08:28:12.356Z,7.25
2019-02-20T08:29:12.379Z,7.25
2019-02-20T08:30:12.344Z,7.27
2019-02-20T08:31:12.338Z,7.17
2019-02-20T08:32:12.345Z,7.27
2019-02-20T08:33:12.315Z,7.17
2019-02-20T08:34:12.297Z,7.12
2019-02-20T08:35:12.310Z,7.16
2019-02-20T08:36:12.323Z,7.23
2019-02-20T08:37:12.291Z,7.13
2019-02-20T08:38:12.247Z,7.16
2019-02-20T08:39:12.243Z,7.10
2019-02-20T08:40:12.273Z,7.27
2019-02-20T08:41:12.223Z,7.25
2019-02-20T08:42:12.206Z,7.21
2019-02-20T08:43:12.368Z,7.27
2019-02-20T08:44:12.182Z,7.23
2019-02-20T08:45:12.169Z,7.45
2019-02-20T08:46:12.157Z,7.45
2019-02-20T08:47:12.144Z,7.40
2019-02-20T08:48:12.134Z,7.45
2019-02-20T08:49:12.166Z,7.50
2019-02-20T08:50:12.117Z,7.49
2019-02-20T08:51:12.107Z,7.57
2019-02-20T08:52:12.088Z,7.49
2019-02-20T08:53:12.088Z,7.67
2019-02-20T08:54:12.070Z,7.68
2019-02-20T08:55:12.100Z,7.68
2019-02-20T08:56:12.057Z,7.75
2019-02-20T08:57:12.033Z,7.83
2019-02-20T08:58:12.064Z,7.77
2019-02-20T08:59:12.027Z,7.85
2019-02-20T09:00:12.072Z,7.86
2019-02-20T09:01:12.014Z,7.79
2019-02-20T09:02:11.979Z,7.87
2019-02-20T09:03:11.973Z,7.86
2019-02-20T09:04:11.958Z,7.89
2019-02-20T09:05:11.956Z,7.95
2019-02-20T09:06:11.983Z,7.98
2019-02-20T09:07:11.929Z,8.04
2019-02-20T09:08:11.916Z,7.98
2019-02-20T09:09:11.898Z,8.04
2019-02-20T09:10:11.897Z,8.15
2019-02-20T09:11:11.906Z,8.05
2019-02-20T09:12:11.875Z,8.04
2019-02-20T09:13:11.860Z,8.05
2019-02-20T09:14:11.846Z,8.10
2019-02-20T09:15:11.830Z,8.19
2019-02-20T09:16:11.887Z,8.05
2019-02-20T09:17:11.847Z,8.18
2019-02-20T09:18:11.802Z,8.16
2019-02-20T09:19:11.794Z,8.23
2019-02-20T09:20:11.791Z,8.25
2019-02-20T09:21:11.766Z,8.23
2019-02-20T09:22:11.791Z,8.34
2019-02-20T09:23:11.781Z,8.28
2019-02-20T09:24:11.750Z,8.41
2019-02-20T09:25:19.629Z,8.22
2019-02-20T09:26:12.713Z,8.25
2019-02-20T09:27:11.731Z,8.41
2019-02-20T09:28:11.706Z,8.40
2019-02-20T09:29:11.800Z,8.44
2019-02-20T09:30:11.667Z,8.50
2019-02-20T09:31:11.680Z,8.34
2019-02-20T09:32:11.689Z,8.30
2019-02-20T09:33:11.675Z,8.29
2019-02-20T09:34:11.636Z,8.25
2019-02-20T09:35:11.614Z,8.26
2019-02-20T09:36:11.614Z,8.22
2019-02-20T09:37:11.593Z,8.29
2019-02-20T09:38:11.738Z,8.18
2019-02-20T09:39:11.596Z,8.20
2019-02-20T09:40:11.581Z,8.22
2019-02-20T09:41:11.564Z,8.41
2019-02-20T09:42:11.559Z,8.28
2019-02-20T09:43:11.551Z,8.34
2019-02-20T09:44:11.509Z,8.25
2019-02-20T09:45:11.511Z,8.22
2019-02-20T09:46:11.514Z,8.26
2019-02-20T09:47:11.482Z,8.38
2019-02-20T09:48:11.494Z,8.38
2019-02-20T09:49:11.457Z,8.43
2019-02-20T09:50:11.452Z,8.30
2019-02-20T09:51:11.445Z,8.40
2019-02-20T09:52:11.427Z,8.44
2019-02-20T09:53:11.437Z,8.38
2019-02-20T09:54:11.408Z,8.40
2019-02-20T09:55:11.414Z,8.43
2019-02-20T09:56:11.427Z,8.38
2019-02-20T09:57:11.374Z,8.47
2019-02-20T09:58:11.476Z,8.50
2019-02-20T09:59:11.425Z,8.53
2019-02-20T10:00:11.333Z,8.68
2019-02-20T10:01:11.334Z,8.62
2019-02-20T10:02:11.329Z,8.77
2019-02-20T10:03:11.329Z,8.80
2019-02-20T10:04:11.322Z,8.86
2019-02-20T10:05:11.302Z,8.86
2019-02-20T10:06:12.973Z,8.91
2019-02-20T10:07:11.263Z,8.87
2019-02-20T10:08:11.252Z,8.84
2019-02-20T10:09:11.285Z,8.83
2019-02-20T10:10:11.250Z,8.77
2019-02-20T10:11:11.218Z,8.87
2019-02-20T10:12:11.213Z,8.79
2019-02-20T10:13:11.603Z,8.83
2019-02-20T10:14:11.239Z,8.76
2019-02-20T10:15:11.186Z,8.99
2019-02-20T10:16:11.164Z,9.02
2019-02-20T10:17:11.161Z,8.96
2019-02-20T10:18:12.282Z,8.95
2019-02-20T10:19:11.157Z,8.92
2019-02-20T10:20:11.154Z,8.89
2019-02-20T10:21:11.109Z,8.77
2019-02-20T10:22:11.102Z,8.81
2019-02-20T10:23:11.130Z,8.71
2019-02-20T10:24:11.074Z,8.81
2019-02-20T10:25:11.149Z,8.86
2019-02-20T10:26:11.060Z,8.86
2019-02-20T10:27:11.045Z,8.99
2019-02-20T10:28:11.032Z,9.05
2019-02-20T10:29:11.020Z,9.23
2019-02-20T10:30:11.023Z,9.23
2019-02-20T10:31:11.030Z,9.36
2019-02-20T10:32:10.996Z,9.35
2019-02-20T10:33:10.976Z,9.33
2019-02-20T10:34:11.294Z,9.28
2019-02-20T10:35:10.967Z,9.31
2019-02-20T10:36:11.006Z,9.29
2019-02-20T10:37:10.941Z,9.23
2019-02-20T10:38:10.923Z,9.23
2019-02-20T10:39:10.909Z,9.26
2019-02-20T10:40:10.962Z,9.18
2019-02-20T10:41:10.899Z,9.10
2019-02-20T10:42:10.911Z,9.02
2019-02-20T10:43:10.862Z,9.11
2019-02-20T10:44:10.861Z,9.17
2019-02-20T10:45:10.848Z,9.23
2019-02-20T10:46:10.833Z,9.33
2019-02-20T10:47:10.864Z,9.43
2019-02-20T10:48:10.805Z,9.40
2019-02-20T10:49:10.800Z,9.39
2019-02-20T10:50:10.821Z,9.39
2019-02-20T10:51:10.797Z,9.38
2019-02-20T10:52:10.814Z,9.38
2019-02-20T10:53:10.754Z,9.42
2019-02-20T10:54:10.753Z,9.40
2019-02-20T10:55:10.732Z,9.50
2019-02-20T10:56:10.738Z,9.53
2019-02-20T10:57:10.711Z,9.66
2019-02-20T10:58:10.727Z,9.69
2019-02-20T10:59:10.709Z,9.64
2019-02-20T11:00:10.702Z,9.64
2019-02-20T11:01:10.664Z,9.57
2019-02-20T11:02:10.662Z,9.60
2019-02-20T11:03:10.676Z,9.66
2019-02-20T11:04:10.630Z,9.76
2019-02-20T11:05:10.616Z,9.78
2019-02-20T11:06:10.604Z,9.66
2019-02-20T11:07:10.608Z,9.71
2019-02-20T11:08:10.627Z,9.69
2019-02-20T11:09:10.573Z,9.72
2019-02-20T11:10:10.577Z,9.72
2019-02-20T11:11:10.559Z,9.78
2019-02-20T11:12:10.549Z,9.75
2019-02-20T11:13:10.658Z,9.69
2019-02-20T11:14:10.551Z,9.72
2019-02-20T11:15:10.516Z,9.72
2019-02-20T11:16:10.512Z,9.76
2019-02-20T11:17:10.511Z,9.60
2019-02-20T11:18:10.513Z,9.71
2019-02-20T11:19:10.463Z,9.74
2019-02-20T11:20:10.448Z,9.72
2019-02-20T11:21:10.513Z,9.78
2019-02-20T11:22:10.463Z,9.74
2019-02-20T11:23:10.476Z,9.89
2019-02-20T11:24:10.406Z,9.91
2019-02-20T11:25:10.399Z,10.02
2019-02-20T11:26:17.795Z,10.01
2019-02-20T11:27:11.375Z,10.05
2019-02-20T11:28:10.371Z,10.05
2019-02-20T11:29:10.378Z,10.14
2019-02-20T11:30:10.361Z,10.08
2019-02-20T11:31:10.372Z,10.01
2019-02-20T11:32:10.319Z,9.99
2019-02-20T11:33:10.308Z,9.99
2019-02-20T11:34:10.392Z,10.07
2019-02-20T11:35:10.303Z,10.08
2019-02-20T11:36:10.277Z,10.14
2019-02-20T11:37:10.267Z,10.08
2019-02-20T11:38:10.258Z,10.20
2019-02-20T11:39:11.697Z,10.25
2019-02-20T11:40:10.254Z,10.23
2019-02-20T11:41:10.223Z,10.29
2019-02-20T11:42:10.221Z,10.38
2019-02-20T11:43:10.226Z,10.34
2019-02-20T11:44:10.197Z,10.32
2019-02-20T11:45:10.207Z,10.38
2019-02-20T11:46:10.206Z,10.48
2019-02-20T11:47:10.175Z,10.55
2019-02-20T11:48:10.166Z,10.47
2019-02-20T11:49:10.136Z,10.47
2019-02-20T11:50:10.220Z,10.36
2019-02-20T11:51:10.114Z,10.42
2019-02-20T11:52:10.128Z,10.42
2019-02-20T11:53:10.105Z,10.45
2019-02-20T11:54:10.115Z,10.42
2019-02-20T11:55:10.075Z,10.32
2019-02-20T11:56:10.110Z,10.40
2019-02-20T11:57:10.088Z,10.29
2019-02-20T11:58:10.045Z,10.40
2019-02-20T11:59:10.034Z,10.41
2019-02-20T12:00:10.098Z,10.44
2019-02-20T12:01:10.034Z,10.45
2019-02-20T12:02:10.096Z,10.41
2019-02-20T12:03:10.054Z,10.38
2019-02-20T12:04:09.967Z,10.32
2019-02-20T12:05:09.962Z,10.34
2019-02-20T12:06:09.948Z,10.33
2019-02-20T12:07:09.944Z,10.33
2019-02-20T12:08:09.964Z,10.36
2019-02-20T12:09:09.935Z,10.48
2019-02-20T12:10:09.959Z,10.42
2019-02-20T12:11:09.907Z,10.33
2019-02-20T12:12:09.905Z,10.29
2019-02-20T12:13:09.912Z,10.18
2019-02-20T12:14:09.887Z,10.26
2019-02-20T12:15:09.854Z,10.30
2019-02-20T12:16:09.843Z,10.26
2019-02-20T12:17:09.962Z,10.25
2019-02-20T12:18:17.237Z,10.22
2019-02-20T12:19:10.820Z,10.30
2019-02-20T12:20:09.821Z,10.23
2019-02-20T12:21:09.789Z,10.23
2019-02-20T12:22:09.819Z,10.29
2019-02-20T12:23:09.792Z,10.40
2019-02-20T12:24:09.790Z,10.36
2019-02-20T12:25:09.766Z,10.42
2019-02-20T12:26:09.744Z,10.45
2019-02-20T12:27:09.729Z,10.53
2019-02-20T12:28:09.769Z,10.71
2019-02-20T12:29:11.205Z,10.70
2019-02-20T12:30:09.690Z,10.61
2019-02-20T12:31:09.680Z,10.61
2019-02-20T12:32:09.704Z,10.60
2019-02-20T12:33:09.654Z,10.61
2019-02-20T12:34:09.707Z,10.52
2019-02-20T12:35:09.647Z,10.47
2019-02-20T12:36:09.685Z,10.38
2019-02-20T12:37:09.616Z,10.38
2019-02-20T12:38:09.602Z,10.44
2019-02-20T12:39:09.599Z,10.47
2019-02-20T12:40:09.638Z,10.51
2019-02-20T12:41:10.902Z,10.52
2019-02-20T12:42:09.561Z,10.51
2019-02-20T12:43:09.621Z,10.56
2019-02-20T12:44:09.542Z,10.52
2019-02-20T12:45:09.546Z,10.42
2019-02-20T12:46:09.518Z,10.47
2019-02-20T12:47:09.546Z,10.40
2019-02-20T12:48:09.500Z,10.55
2019-02-20T12:49:09.492Z,10.48
2019-02-20T12:50:09.495Z,10.55
2019-02-20T12:51:09.464Z,10.55
2019-02-20T12:52:09.441Z,10.56
2019-02-20T12:53:09.437Z,10.73
2019-02-20T12:54:09.429Z,10.71
2019-02-20T12:55:09.462Z,10.81
2019-02-20T12:56:10.265Z,10.71
2019-02-20T12:57:10.374Z,10.81
2019-02-20T12:58:09.386Z,10.91
2019-02-20T12:59:09.381Z,10.88
2019-02-20T13:00:09.360Z,10.71
2019-02-20T13:01:09.389Z,10.76
2019-02-20T13:02:09.341Z,10.78
2019-02-20T13:03:09.395Z,10.71
2019-02-20T13:04:09.346Z,10.74
2019-02-20T13:05:09.332Z,10.68
2019-02-20T13:06:09.302Z,10.63
2019-02-20T13:07:09.350Z,10.56
2019-02-20T13:08:09.271Z,10.67
2019-02-20T13:09:09.286Z,10.68
2019-02-20T13:10:09.259Z,10.67
2019-02-20T13:11:09.241Z,10.64
2019-02-20T13:12:09.252Z,10.64
2019-02-20T13:13:09.262Z,10.56
2019-02-20T13:14:09.204Z,10.52